^^
Grace C. Lehan Memorial Weather Station Historical Data
Daily Summary for September 20, 2021 Units:  English    Metric   Both
Daily Weekly Monthly Yearly
  High: Low: Average:
Temperature: 76.8 °F 53.7 °F 65.9 °F
Dew Point: 62.8 °F 52 °F 57.5 °F
Humidity: 95.5% 58.3% 76%
Wind Speed: 1.5mph 0mph 0.1mph
Wind Gust: 9mph - -
Wind- - South
Pressure: 30.35 in 30.21 in -
Precipitation: 0.00 in    
 
 
Tabular Data for September 20, 2021
Time Temperature Dew Point Pressure Wind Wind Speed Wind Gust Humidity Rainfall Rate (Hourly) solar
00:04 58.7 °F 55.2 °F 30.22 in Calm     88% 0.00 in 0 W/m2
00:09 58.7 °F 55.2 °F 30.22 in Calm     88% 0.00 in 0 W/m2
00:14 58.6 °F 55.1 °F 30.22 in Calm     88% 0.00 in 0 W/m2
00:19 58.6 °F 55.1 °F 30.22 in Calm     88% 0.00 in 0 W/m2
01:00 58 °F 54.8 °F 30.21 in Calm     89% 0.00 in 0 W/m2
01:30 57.3 °F 54.4 °F 30.22 in Calm     90% 0.00 in 0 W/m2
02:00 56.9 °F 54.6 °F 30.22 in Calm     92% 0.00 in 0 W/m2
02:30 56.2 °F 53.9 °F 30.23 in Calm     92% 0.00 in 0 W/m2
03:00 55.9 °F 53.6 °F 30.24 in Calm     92% 0.00 in 0 W/m2
03:30 55.6 °F 53.6 °F 30.24 in Calm     93% 0.00 in 0 W/m2
04:04 55.3 °F 53.3 °F 30.24 in Calm     93% 0.00 in 0 W/m2
04:09 55.3 °F 53.3 °F 30.24 in Calm     93% 0.00 in 0 W/m2
04:14 55.2 °F 53.2 °F 30.24 in Calm     93% 0.00 in 0 W/m2
04:19 55.1 °F 53.1 °F 30.25 in Calm     93% 0.00 in 0 W/m2
04:24 55.1 °F 53.1 °F 30.25 in Calm     93% 0.00 in 0 W/m2
04:29 55.1 °F 53.4 °F 30.25 in Calm     94% 0.00 in 0 W/m2
04:34 55.1 °F 53.4 °F 30.25 in Calm     94% 0.00 in 0 W/m2
04:39 55.1 °F 53.4 °F 30.25 in Calm     94% 0.00 in 0 W/m2
04:44 55 °F 53.1 °F 30.25 in Calm     93.3% 0.00 in 0 W/m2
04:49 54.9 °F 53.1 °F 30.25 in Calm     93.7% 0.00 in 0 W/m2
04:54 54.8 °F 53.1 °F 30.25 in Calm     94% 0.00 in 0 W/m2
04:59 54.7 °F 53 °F 30.25 in Calm     94% 0.00 in 0 W/m2
05:04 54.6 °F 52.9 °F 30.25 in Calm     94% 0.00 in 0 W/m2
05:09 54.5 °F 52.6 °F 30.26 in Calm     93.1% 0.00 in 0 W/m2
05:14 54.4 °F 52.4 °F 30.26 in Calm     93% 0.00 in 0 W/m2
05:19 54.3 °F 52.3 °F 30.26 in Calm     93% 0.00 in 0 W/m2
05:24 54.2 °F 52.4 °F 30.26 in Calm     93.5% 0.00 in 0 W/m2
05:29 54.2 °F 52.5 °F 30.26 in Calm     94% 0.00 in 0 W/m2
05:34 54.2 °F 52.5 °F 30.26 in Calm     94% 0.00 in 0 W/m2
05:39 54.2 °F 52.5 °F 30.26 in Calm     94% 0.00 in 0 W/m2
05:44 54.2 °F 52.5 °F 30.26 in Calm     94% 0.00 in 0 W/m2
05:49 54.2 °F 52.5 °F 30.26 in Calm     94% 0.00 in 0 W/m2
05:54 54.2 °F 52.5 °F 30.27 in Calm     94% 0.00 in 0 W/m2
05:59 54.2 °F 52.5 °F 30.26 in Calm     94% 0.00 in 0 W/m2
06:04 54.1 °F 52.4 °F 30.27 in Calm     94% 0.00 in 0 W/m2
06:09 54.1 °F 52.4 °F 30.27 in Calm     94% 0.00 in 0 W/m2
06:14 54.1 °F 52.4 °F 30.27 in Calm     94% 0.00 in 0 W/m2
06:19 54.1 °F 52.4 °F 30.27 in Calm     94% 0.00 in 0 W/m2
06:24 54 °F 52.3 °F 30.28 in Calm     94% 0.00 in 0 W/m2
06:29 53.9 °F 52.2 °F 30.28 in Calm     94% 0.00 in 0 W/m2
06:34 53.9 °F 52.2 °F 30.28 in Calm     94% 0.00 in 0 W/m2
06:39 53.9 °F 52.2 °F 30.29 in Calm     94% 0.00 in 0 W/m2
06:44 53.8 °F 52.1 °F 30.29 in Calm     94% 0.00 in 5 W/m2
06:49 53.8 °F 52.1 °F 30.29 in Calm     94% 0.00 in 7 W/m2
06:54 53.8 °F 52.1 °F 30.30 in Calm     94% 0.00 in 7 W/m2
06:59 53.8 °F 52.1 °F 30.29 in Calm     94% 0.00 in 9 W/m2
07:04 53.7 °F 52 °F 30.30 in Calm     94% 0.00 in 11 W/m2
07:09 53.7 °F 52 °F 30.30 in Calm     94% 0.00 in 11 W/m2
07:14 53.7 °F 52 °F 30.30 in Calm     94% 0.00 in 12 W/m2
07:19 53.7 °F 52 °F 30.30 in Calm     94% 0.00 in 23 W/m2
07:24 53.7 °F 52 °F 30.31 in Calm     94% 0.00 in 42 W/m2
07:29 53.7 °F 52.2 °F 30.30 in Calm     94.6% 0.00 in 51 W/m2
07:34 53.9 °F 52.5 °F 30.31 in Calm     95% 0.00 in 49 W/m2
07:39 54.2 °F 52.8 °F 30.31 in Calm     95% 0.00 in 56 W/m2
07:44 54.6 °F 53.2 °F 30.31 in Calm     95% 0.00 in 62 W/m2
07:49 55 °F 53.7 °F 30.31 in Calm     95.1% 0.00 in 65 W/m2
07:54 55.5 °F 54.3 °F 30.31 in Calm     95.5% 0.00 in 42 W/m2
07:59 55.8 °F 54.4 °F 30.31 in Calm     95% 0.00 in 49 W/m2
08:09 56.2 °F 54.8 °F 30.31 in Calm     95% 0.00 in 28 W/m2
08:13 56.3 °F 54.9 °F 30.31 in ENE 0.1 mph 2 mph 94.9% 0.00 in 33 W/m2
08:30 57.3 °F 55.6 °F 30.31 in Calm   3 mph 94% 0.00 in 55 W/m2
09:00 59.6 °F 57 °F 30.32 in Calm   2 mph 91% 0.00 in 158 W/m2
09:30 63.6 °F 58 °F 30.33 in Calm   3 mph 82% 0.00 in 321 W/m2
10:00 67 °F 58.8 °F 30.34 in Calm   3 mph 75% 0.00 in 493 W/m2
10:30 71 °F 61.9 °F 30.34 in Calm   4 mph 73% 0.00 in 626 W/m2
11:00 72.6 °F 62.3 °F 30.34 in Calm   2 mph 70% 0.00 in 691 W/m2
11:30 74.8 °F 62.7 °F 30.33 in Calm   2 mph 66% 0.00 in 719 W/m2
12:04 73 °F 61.5 °F 30.33 in Calm     67.1% 0.00 in 95 W/m2
12:09 73 °F 62.1 °F 30.33 in Calm     68.7% 0.00 in 134 W/m2
12:14 73 °F 62.2 °F 30.33 in Calm     68.8% 0.00 in 130 W/m2
12:19 73.2 °F 62.8 °F 30.33 in ENE 0.5 mph 5 mph 70% 0.00 in 171 W/m2
12:24 73.5 °F 62.6 °F 30.33 in ENE 0.2 mph 5 mph 68.9% 0.00 in 450 W/m2
12:29 73.7 °F 62.4 °F 30.33 in Calm   5 mph 67.7% 0.00 in 450 W/m2
12:34 73.8 °F 62.7 °F 30.33 in Calm   5 mph 68.3% 0.00 in 283 W/m2
12:39 73.9 °F 62.7 °F 30.33 in ENE 0.2 mph 4 mph 68.1% 0.00 in 309 W/m2
12:44 74 °F 62.3 °F 30.33 in Calm   4 mph 67% 0.00 in 195 W/m2
12:49 74 °F 61.8 °F 30.33 in ENE 0.1 mph 4 mph 65.8% 0.00 in 192 W/m2
12:54 73.8 °F 61.5 °F 30.33 in Calm   4 mph 65.3% 0.00 in 410 W/m2
12:59 73.9 °F 61.7 °F 30.33 in East 0.2 mph 4 mph 65.7% 0.00 in 410 W/m2
13:04 74 °F 61.8 °F 30.33 in Calm   4 mph 65.9% 0.00 in 733 W/m2
13:09 74.2 °F 62.1 °F 30.33 in ENE 0.6 mph 3 mph 66% 0.00 in 659 W/m2
13:14 74.4 °F 61.7 °F 30.32 in ENE 0.2 mph 4 mph 64.6% 0.00 in 327 W/m2
13:19 74.5 °F 61.2 °F 30.32 in Calm   4 mph 63.3% 0.00 in 116 W/m2
13:24 74.3 °F 61.1 °F 30.32 in Calm   4 mph 63.5% 0.00 in 97 W/m2
13:29 74.1 °F 61.8 °F 30.32 in ENE 0.4 mph 4 mph 65.3% 0.00 in 130 W/m2
13:34 74.2 °F 61.7 °F 30.32 in ENE 0.6 mph 4 mph 65.1% 0.00 in 207 W/m2
13:39 74.2 °F 60.8 °F 30.32 in Calm   4 mph 62.9% 0.00 in 207 W/m2
13:44 74.3 °F 61.3 °F 30.32 in ENE 0.7 mph 6 mph 63.9% 0.00 in 142 W/m2
13:49 74.6 °F 60.6 °F 30.32 in WSW 1.5 mph 9 mph 61.8% 0.00 in 113 W/m2
13:54 75 °F 60.5 °F 30.32 in SW 0.1 mph 9 mph 60.7% 0.00 in 102 W/m2
13:59 75.2 °F 60.3 °F 30.32 in Calm   9 mph 59.8% 0.00 in 97 W/m2
14:04 75.4 °F 60.8 °F 30.32 in SSW 0.5 mph 9 mph 60.6% 0.00 in 107 W/m2
14:09 75.7 °F 61.1 °F 30.32 in South 0.6 mph 4 mph 60.5% 0.00 in 118 W/m2
14:14 75.8 °F 61 °F 30.31 in SSE 0.4 mph 4 mph 60.1% 0.00 in 113 W/m2
14:19 76 °F 60.3 °F 30.31 in SE 0.8 mph 5 mph 58.3% 0.00 in 107 W/m2
14:24 75.8 °F 60.2 °F 30.31 in Calm   5 mph 58.4% 0.00 in 77 W/m2
14:29 75.5 °F 60.3 °F 30.31 in Calm   5 mph 59.4% 0.00 in 105 W/m2
14:34 75.2 °F 60.9 °F 30.31 in SE 0.1 mph 5 mph 61% 0.00 in 123 W/m2
14:39 75.2 °F 61.4 °F 30.31 in SW 0.3 mph 5 mph 62.1% 0.00 in 142 W/m2
14:44 75.5 °F 60.7 °F 30.31 in SSE 0.5 mph 5 mph 60.1% 0.00 in 223 W/m2
14:49 75.6 °F 60.5 °F 30.31 in SE 0.3 mph 5 mph 59.5% 0.00 in 121 W/m2
14:54 75.5 °F 61.1 °F 30.31 in Calm   5 mph 61% 0.00 in 93 W/m2
14:59 75.2 °F 60.7 °F 30.31 in Calm   5 mph 60.8% 0.00 in 146 W/m2
15:04 75 °F 61 °F 30.31 in SE 0.1 mph 5 mph 61.7% 0.00 in 146 W/m2
15:09 75.1 °F 61.3 °F 30.30 in SE 0.5 mph 3 mph 62.2% 0.00 in 374 W/m2
15:14 75.4 °F 61.2 °F 30.30 in South 1 mph 4 mph 61.4% 0.00 in 267 W/m2
15:19 75.8 °F 60.4 °F 30.30 in SSW 0.5 mph 4 mph 58.8% 0.00 in 480 W/m2
15:24 76.1 °F 60.7 °F 30.31 in SW 0.3 mph 4 mph 58.8% 0.00 in 480 W/m2
15:29 76.4 °F 61.7 °F 30.30 in SW 0.3 mph 4 mph 60.3% 0.00 in 642 W/m2
15:34 76.7 °F 61.9 °F 30.30 in SW 1.4 mph 6 mph 60.2% 0.00 in 642 W/m2
15:39 76.8 °F 61.7 °F 30.31 in SW 0.1 mph 6 mph 59.5% 0.00 in 90 W/m2
15:44 76.6 °F 61.3 °F 30.30 in WSW 0.4 mph 6 mph 59.3% 0.00 in 325 W/m2
15:49 76.2 °F 61.4 °F 30.31 in Calm   6 mph 60.3% 0.00 in 79 W/m2
15:54 75.7 °F 61.5 °F 30.31 in WSW 0.1 mph 6 mph 61.4% 0.00 in 74 W/m2
15:59 75.2 °F 60.8 °F 30.30 in WSW 0.2 mph 6 mph 60.8% 0.00 in 56 W/m2
16:09 74.3 °F 60.9 °F 30.30 in WSW 0.6 mph 4 mph 63% 0.00 in 56 W/m2
16:14 74.3 °F 61 °F 30.30 in WSW 0.7 mph 5 mph 63.2% 0.00 in 51 W/m2
16:19 74.4 °F 60.5 °F 30.30 in WSW 0.2 mph 5 mph 61.8% 0.00 in 39 W/m2
16:24 74.4 °F 60.1 °F 30.30 in WSW 0.1 mph 5 mph 61% 0.00 in 33 W/m2
16:29 74.2 °F 59.9 °F 30.30 in WSW 0.1 mph 5 mph 61.1% 0.00 in 32 W/m2
16:34 73.9 °F 60.1 °F 30.30 in WSW 0.1 mph 5 mph 62% 0.00 in 26 W/m2
16:39 73.6 °F 60.2 °F 30.30 in WSW 0.1 mph 1 mph 62.9% 0.00 in 26 W/m2
16:44 73.4 °F 60.1 °F 30.30 in WSW 0.3 mph 2 mph 63% 0.00 in 32 W/m2
16:49 73.3 °F 60 °F 30.30 in Calm   2 mph 63% 0.00 in 21 W/m2
16:54 73.2 °F 59.6 °F 30.31 in Calm   2 mph 62.3% 0.00 in 25 W/m2
16:59 73.1 °F 60 °F 30.30 in Calm   2 mph 63.7% 0.00 in 32 W/m2
17:04 73 °F 60.4 °F 30.31 in Calm   2 mph 64.7% 0.00 in 32 W/m2
17:09 73 °F 60.5 °F 30.31 in SSW 0.1 mph 3 mph 64.9% 0.00 in 28 W/m2
17:14 73 °F 60.2 °F 30.31 in SSW 0.3 mph 5 mph 64.1% 0.00 in 26 W/m2
17:19 73.1 °F 60 °F 30.31 in Calm   5 mph 63.7% 0.00 in 26 W/m2
17:24 73 °F 60.1 °F 30.31 in SSW 0.1 mph 5 mph 63.8% 0.00 in 23 W/m2
17:29 72.9 °F 59.3 °F 30.31 in SSW 0.3 mph 5 mph 62.3% 0.00 in 21 W/m2
17:34 72.7 °F 59.1 °F 30.31 in Calm   5 mph 62.3% 0.00 in 21 W/m2
17:39 72.5 °F 58.9 °F 30.31 in Calm     62.3% 0.00 in 21 W/m2
17:44 72.3 °F 58.8 °F 30.31 in Calm     62.5% 0.00 in 19 W/m2
17:49 72.2 °F 58.9 °F 30.31 in Calm   1 mph 63% 0.00 in 19 W/m2
17:54 72 °F 58.8 °F 30.31 in Calm   1 mph 63.2% 0.00 in 18 W/m2
17:59 71.9 °F 59 °F 30.31 in SW 0.3 mph 2 mph 63.9% 0.00 in 18 W/m2
18:04 71.7 °F 58.4 °F 30.31 in South 0.1 mph 2 mph 63% 0.00 in 16 W/m2
18:09 71.5 °F 58.4 °F 30.31 in South 0.1 mph 2 mph 63.5% 0.00 in 12 W/m2
18:14 71.3 °F 58.3 °F 30.31 in Calm   2 mph 63.6% 0.00 in 12 W/m2
18:19 71 °F 58.3 °F 30.31 in South 0.3 mph 3 mph 64% 0.00 in 11 W/m2
18:24 70.8 °F 58.3 °F 30.32 in South 0.2 mph 3 mph 64.5% 0.00 in 9 W/m2
18:29 70.6 °F 58.3 °F 30.32 in Calm   3 mph 65% 0.00 in 5 W/m2
18:34 70.4 °F 58.4 °F 30.32 in Calm   3 mph 65.6% 0.00 in 5 W/m2
18:39 70.2 °F 58.6 °F 30.32 in Calm     66.6% 0.00 in 0 W/m2
18:44 70 °F 58.4 °F 30.32 in South 0.2 mph 1 mph 66.6% 0.00 in 0 W/m2
18:49 69.8 °F 58.3 °F 30.32 in Calm   1 mph 66.9% 0.00 in 0 W/m2
18:54 69.5 °F 58.1 °F 30.32 in Calm   1 mph 67% 0.00 in 0 W/m2
18:59 69.3 °F 58.1 °F 30.32 in Calm   1 mph 67.7% 0.00 in 0 W/m2
19:04 69 °F 58 °F 30.33 in Calm   1 mph 68% 0.00 in 0 W/m2
19:09 68.8 °F 57.8 °F 30.33 in Calm     68% 0.00 in 0 W/m2
19:14 68.5 °F 57.8 °F 30.33 in Calm     68.6% 0.00 in 0 W/m2
19:19 68.3 °F 57.8 °F 30.33 in Calm     69% 0.00 in 0 W/m2
19:24 68.1 °F 57.8 °F 30.33 in Calm     69.6% 0.00 in 0 W/m2
19:29 67.9 °F 57.8 °F 30.33 in Calm     70% 0.00 in 0 W/m2
19:34 67.6 °F 57.8 °F 30.33 in Calm     70.7% 0.00 in 0 W/m2
19:39 67.4 °F 57.7 °F 30.33 in Calm     71.2% 0.00 in 0 W/m2
19:44 67.2 °F 57.8 °F 30.33 in Calm     72% 0.00 in 0 W/m2
19:49 66.9 °F 57.7 °F 30.33 in Calm     72.3% 0.00 in 0 W/m2
19:54 66.7 °F 57.8 °F 30.34 in Calm     73% 0.00 in 0 W/m2
19:59 66.5 °F 57.9 °F 30.34 in Calm     73.8% 0.00 in 0 W/m2
20:00 66.5 °F 58.3 °F 30.34 in Calm     75% 0.00 in 0 W/m2
20:09 66.2 °F 58 °F 30.34 in Calm     74.8% 0.00 in 0 W/m2
20:14 66.1 °F 57.9 °F 30.34 in Calm     75% 0.00 in 0 W/m2
20:19 65.9 °F 57.8 °F 30.34 in Calm     75% 0.00 in 0 W/m2
20:24 65.8 °F 58 °F 30.34 in Calm     76% 0.00 in 0 W/m2
20:29 65.6 °F 57.9 °F 30.34 in Calm     76% 0.00 in 0 W/m2
20:34 65.5 °F 57.7 °F 30.34 in Calm     76% 0.00 in 0 W/m2
20:39 65.3 °F 57.8 °F 30.35 in Calm     76.8% 0.00 in 0 W/m2
20:44 65.1 °F 57.8 °F 30.35 in Calm     77% 0.00 in 0 W/m2
20:49 65 °F 57.8 °F 30.35 in Calm     77.5% 0.00 in 0 W/m2
20:53 64.9 °F 57.9 °F 30.35 in Calm     78% 0.00 in 0 W/m2
20:59 64.9 °F 57.9 °F 30.35 in Calm     78% 0.00 in 0 W/m2
21:04 64.9 °F 57.9 °F 30.35 in Calm     78% 0.00 in 0 W/m2
21:09 64.8 °F 57.8 °F 30.35 in Calm     78% 0.00 in 0 W/m2
21:14 64.8 °F 57.8 °F 30.35 in Calm     78% 0.00 in 0 W/m2
21:19 64.8 °F 57.8 °F 30.35 in Calm     78% 0.00 in 0 W/m2
21:24 64.7 °F 57.8 °F 30.35 in Calm     78.5% 0.00 in 0 W/m2
21:29 64.5 °F 57.8 °F 30.35 in Calm     78.9% 0.00 in 0 W/m2
21:34 64.4 °F 57.7 °F 30.35 in Calm     79% 0.00 in 0 W/m2
21:39 64.2 °F 57.5 °F 30.35 in Calm     79% 0.00 in 0 W/m2
21:44 63.9 °F 57.3 °F 30.35 in Calm     79% 0.00 in 0 W/m2
21:48 63.7 °F 57.1 °F 30.35 in Calm     79% 0.00 in 0 W/m2
Hartford County Weather
Compliments of Weather Underground - 2 mb